sensor_id;sensor_type;location;lat;lon;timestamp;temperature;humidity
10057;DHT22;5068;51.286;7.518;2022-09-17T00:01:07;10.70;66.00
10057;DHT22;5068;51.286;7.518;2022-09-17T00:02:43;10.80;66.10
10057;DHT22;5068;51.286;7.518;2022-09-17T00:04:18;10.70;66.00
10057;DHT22;5068;51.286;7.518;2022-09-17T00:05:58;10.70;65.80
10057;DHT22;5068;51.286;7.518;2022-09-17T00:07:33;10.70;66.10
10057;DHT22;5068;51.286;7.518;2022-09-17T00:09:07;10.70;66.00
10057;DHT22;5068;51.286;7.518;2022-09-17T00:10:43;10.80;66.20
10057;DHT22;5068;51.286;7.518;2022-09-17T00:12:16;10.80;66.10
10057;DHT22;5068;51.286;7.518;2022-09-17T00:13:51;10.80;66.00
10057;DHT22;5068;51.286;7.518;2022-09-17T00:15:24;10.80;65.90
10057;DHT22;5068;51.286;7.518;2022-09-17T00:17:00;10.80;65.70
10057;DHT22;5068;51.286;7.518;2022-09-17T00:18:34;10.80;65.70
10057;DHT22;5068;51.286;7.518;2022-09-17T00:20:11;10.80;65.70
10057;DHT22;5068;51.286;7.518;2022-09-17T00:21:45;10.80;65.60
10057;DHT22;5068;51.286;7.518;2022-09-17T00:23:20;10.80;65.60
10057;DHT22;5068;51.286;7.518;2022-09-17T00:24:52;10.80;65.70
10057;DHT22;5068;51.286;7.518;2022-09-17T00:26:27;10.80;65.70
10057;DHT22;5068;51.286;7.518;2022-09-17T00:28:01;10.80;65.90
10057;DHT22;5068;51.286;7.518;2022-09-17T00:29:33;10.80;65.80
10057;DHT22;5068;51.286;7.518;2022-09-17T00:31:08;10.80;65.80
10057;DHT22;5068;51.286;7.518;2022-09-17T00:32:40;10.80;65.90
10057;DHT22;5068;51.286;7.518;2022-09-17T00:34:14;10.80;65.90
10057;DHT22;5068;51.286;7.518;2022-09-17T00:35:57;10.70;66.00
10057;DHT22;5068;51.286;7.518;2022-09-17T00:37:30;10.70;66.30
10057;DHT22;5068;51.286;7.518;2022-09-17T00:39:07;10.80;66.20
10057;DHT22;5068;51.286;7.518;2022-09-17T00:40:41;10.80;66.30
10057;DHT22;5068;51.286;7.518;2022-09-17T00:42:16;10.70;66.20
10057;DHT22;5068;51.286;7.518;2022-09-17T00:43:52;10.80;66.40
10057;DHT22;5068;51.286;7.518;2022-09-17T00:45:28;10.80;66.40
10057;DHT22;5068;51.286;7.518;2022-09-17T00:47:03;10.80;66.40
10057;DHT22;5068;51.286;7.518;2022-09-17T00:48:37;10.80;66.30
10057;DHT22;5068;51.286;7.518;2022-09-17T00:50:17;10.80;66.20
10057;DHT22;5068;51.286;7.518;2022-09-17T00:51:57;10.80;66.30
10057;DHT22;5068;51.286;7.518;2022-09-17T00:53:38;10.80;66.10
10057;DHT22;5068;51.286;7.518;2022-09-17T00:55:19;10.80;66.00
10057;DHT22;5068;51.286;7.518;2022-09-17T00:56:56;10.80;65.90
10057;DHT22;5068;51.286;7.518;2022-09-17T00:58:30;10.80;65.50
10057;DHT22;5068;51.286;7.518;2022-09-17T01:00:17;10.80;65.30
10057;DHT22;5068;51.286;7.518;2022-09-17T01:01:57;10.80;65.10
10057;DHT22;5068;51.286;7.518;2022-09-17T01:03:39;10.80;65.10
10057;DHT22;5068;51.286;7.518;2022-09-17T01:05:18;10.80;65.00
10057;DHT22;5068;51.286;7.518;2022-09-17T01:07:07;10.80;65.00
10057;DHT22;5068;51.286;7.518;2022-09-17T01:08:58;10.80;65.00
10057;DHT22;5068;51.286;7.518;2022-09-17T01:11:09;10.70;64.90
10057;DHT22;5068;51.286;7.518;2022-09-17T01:13:05;10.80;65.10
10057;DHT22;5068;51.286;7.518;2022-09-17T01:15:03;10.80;65.00
10057;DHT22;5068;51.286;7.518;2022-09-17T01:16:56;10.70;65.00
10057;DHT22;5068;51.286;7.518;2022-09-17T01:18:49;10.80;65.10
10057;DHT22;5068;51.286;7.518;2022-09-17T01:22:59;10.70;65.40
10057;DHT22;5068;51.286;7.518;2022-09-17T01:25:03;10.70;65.40
10057;DHT22;5068;51.286;7.518;2022-09-17T01:27:22;10.70;65.20
10057;DHT22;5068;51.286;7.518;2022-09-17T01:29:32;10.60;66.20
10057;DHT22;5068;51.286;7.518;2022-09-17T01:31:42;10.60;65.20
10057;DHT22;5068;51.286;7.518;2022-09-17T01:33:25;10.60;65.60
10057;DHT22;5068;51.286;7.518;2022-09-17T01:35:11;10.60;65.40
10057;DHT22;5068;51.286;7.518;2022-09-17T01:36:58;10.60;65.50
10057;DHT22;5068;51.286;7.518;2022-09-17T01:38:41;10.60;65.60
10057;DHT22;5068;51.286;7.518;2022-09-17T01:40:21;10.60;65.70
10057;DHT22;5068;51.286;7.518;2022-09-17T01:42:06;10.60;65.90
10057;DHT22;5068;51.286;7.518;2022-09-17T01:43:53;10.50;65.70
10057;DHT22;5068;51.286;7.518;2022-09-17T01:45:35;10.50;65.90
10057;DHT22;5068;51.286;7.518;2022-09-17T01:47:16;10.50;66.00
10057;DHT22;5068;51.286;7.518;2022-09-17T01:48:58;10.50;66.00
10057;DHT22;5068;51.286;7.518;2022-09-17T01:50:39;10.50;66.10
10057;DHT22;5068;51.286;7.518;2022-09-17T01:52:18;10.50;66.10
10057;DHT22;5068;51.286;7.518;2022-09-17T01:53:55;10.60;66.20
10057;DHT22;5068;51.286;7.518;2022-09-17T01:55:35;10.50;66.20
10057;DHT22;5068;51.286;7.518;2022-09-17T01:57:15;10.50;66.30
10057;DHT22;5068;51.286;7.518;2022-09-17T01:58:58;10.50;66.30
10057;DHT22;5068;51.286;7.518;2022-09-17T02:00:37;10.50;66.30
10057;DHT22;5068;51.286;7.518;2022-09-17T02:02:20;10.50;66.30
10057;DHT22;5068;51.286;7.518;2022-09-17T02:04:02;10.50;66.40
10057;DHT22;5068;51.286;7.518;2022-09-17T02:05:44;10.50;66.30
10057;DHT22;5068;51.286;7.518;2022-09-17T02:07:22;10.50;66.30
10057;DHT22;5068;51.286;7.518;2022-09-17T02:09:00;10.50;66.20
10057;DHT22;5068;51.286;7.518;2022-09-17T02:10:43;10.50;66.00
10057;DHT22;5068;51.286;7.518;2022-09-17T02:12:22;10.50;65.90
10057;DHT22;5068;51.286;7.518;2022-09-17T02:14:03;10.50;65.90
10057;DHT22;5068;51.286;7.518;2022-09-17T02:15:44;10.50;65.70
10057;DHT22;5068;51.286;7.518;2022-09-17T02:17:28;10.50;65.70
10057;DHT22;5068;51.286;7.518;2022-09-17T02:19:06;10.50;65.70
10057;DHT22;5068;51.286;7.518;2022-09-17T02:20:46;10.40;65.60
10057;DHT22;5068;51.286;7.518;2022-09-17T02:22:27;10.40;65.50
10057;DHT22;5068;51.286;7.518;2022-09-17T02:24:10;10.40;65.50
10057;DHT22;5068;51.286;7.518;2022-09-17T02:25:52;10.40;65.50
10057;DHT22;5068;51.286;7.518;2022-09-17T02:27:37;10.50;65.60
10057;DHT22;5068;51.286;7.518;2022-09-17T02:29:28;10.40;65.60
10057;DHT22;5068;51.286;7.518;2022-09-17T02:31:04;10.40;65.70
10057;DHT22;5068;51.286;7.518;2022-09-17T02:32:40;10.40;65.50
10057;DHT22;5068;51.286;7.518;2022-09-17T02:34:14;10.30;65.60
10057;DHT22;5068;51.286;7.518;2022-09-17T02:35:47;10.30;65.70
10057;DHT22;5068;51.286;7.518;2022-09-17T02:37:20;10.30;65.70
10057;DHT22;5068;51.286;7.518;2022-09-17T02:38:58;10.30;66.80
10057;DHT22;5068;51.286;7.518;2022-09-17T02:40:36;10.30;66.10
10057;DHT22;5068;51.286;7.518;2022-09-17T02:42:21;10.30;66.10
10057;DHT22;5068;51.286;7.518;2022-09-17T02:44:09;10.40;66.20
10057;DHT22;5068;51.286;7.518;2022-09-17T02:46:00;10.40;66.20
10057;DHT22;5068;51.286;7.518;2022-09-17T02:48:07;10.30;66.10
10057;DHT22;5068;51.286;7.518;2022-09-17T02:50:13;10.30;66.40
10057;DHT22;5068;51.286;7.518;2022-09-17T02:52:05;10.30;66.50
10057;DHT22;5068;51.286;7.518;2022-09-17T02:53:53;10.30;66.30
10057;DHT22;5068;51.286;7.518;2022-09-17T02:55:38;10.30;66.40
10057;DHT22;5068;51.286;7.518;2022-09-17T02:57:19;10.40;66.50
10057;DHT22;5068;51.286;7.518;2022-09-17T02:59:06;10.30;66.50
10057;DHT22;5068;51.286;7.518;2022-09-17T03:00:48;10.30;66.60
10057;DHT22;5068;51.286;7.518;2022-09-17T03:02:26;10.30;66.50
10057;DHT22;5068;51.286;7.518;2022-09-17T03:04:08;10.30;66.70
10057;DHT22;5068;51.286;7.518;2022-09-17T03:05:45;10.30;66.80
10057;DHT22;5068;51.286;7.518;2022-09-17T03:07:20;10.30;66.70
10057;DHT22;5068;51.286;7.518;2022-09-17T03:08:54;10.40;66.90
10057;DHT22;5068;51.286;7.518;2022-09-17T03:10:28;10.30;67.00
10057;DHT22;5068;51.286;7.518;2022-09-17T03:12:04;10.30;66.40
10057;DHT22;5068;51.286;7.518;2022-09-17T03:13:37;10.30;66.40
10057;DHT22;5068;51.286;7.518;2022-09-17T03:15:11;10.30;66.50
10057;DHT22;5068;51.286;7.518;2022-09-17T03:16:48;10.30;66.50
10057;DHT22;5068;51.286;7.518;2022-09-17T03:18:22;10.30;66.40
10057;DHT22;5068;51.286;7.518;2022-09-17T03:19:57;10.30;66.70
10057;DHT22;5068;51.286;7.518;2022-09-17T03:21:30;10.30;66.60
10057;DHT22;5068;51.286;7.518;2022-09-17T03:23:04;10.30;66.70
10057;DHT22;5068;51.286;7.518;2022-09-17T03:24:38;10.30;66.70
10057;DHT22;5068;51.286;7.518;2022-09-17T03:26:10;10.30;66.70
10057;DHT22;5068;51.286;7.518;2022-09-17T03:27:44;10.30;66.70
10057;DHT22;5068;51.286;7.518;2022-09-17T03:29:19;10.30;66.80
10057;DHT22;5068;51.286;7.518;2022-09-17T03:30:52;10.30;66.90
10057;DHT22;5068;51.286;7.518;2022-09-17T03:32:26;10.50;67.00
10057;DHT22;5068;51.286;7.518;2022-09-17T03:33:58;10.30;66.90
10057;DHT22;5068;51.286;7.518;2022-09-17T03:35:33;10.30;66.80
10057;DHT22;5068;51.286;7.518;2022-09-17T03:37:06;10.40;67.10
10057;DHT22;5068;51.286;7.518;2022-09-17T03:38:40;10.40;67.00
10057;DHT22;5068;51.286;7.518;2022-09-17T03:40:12;10.40;66.90
10057;DHT22;5068;51.286;7.518;2022-09-17T03:41:46;10.40;67.00
10057;DHT22;5068;51.286;7.518;2022-09-17T03:43:20;10.40;66.90
10057;DHT22;5068;51.286;7.518;2022-09-17T03:44:52;10.40;66.90
10057;DHT22;5068;51.286;7.518;2022-09-17T03:46:26;10.40;66.90
10057;DHT22;5068;51.286;7.518;2022-09-17T03:48:05;10.40;66.90
10057;DHT22;5068;51.286;7.518;2022-09-17T03:49:39;10.40;66.70
10057;DHT22;5068;51.286;7.518;2022-09-17T03:51:15;10.40;66.70
10057;DHT22;5068;51.286;7.518;2022-09-17T03:52:49;10.40;66.70
10057;DHT22;5068;51.286;7.518;2022-09-17T03:54:22;10.40;66.50
10057;DHT22;5068;51.286;7.518;2022-09-17T03:55:57;10.40;66.50
10057;DHT22;5068;51.286;7.518;2022-09-17T03:57:31;10.40;66.40
10057;DHT22;5068;51.286;7.518;2022-09-17T03:59:05;10.40;66.30
10057;DHT22;5068;51.286;7.518;2022-09-17T04:00:38;10.40;66.30
10057;DHT22;5068;51.286;7.518;2022-09-17T04:02:11;10.50;66.30
10057;DHT22;5068;51.286;7.518;2022-09-17T04:03:44;10.40;66.10
10057;DHT22;5068;51.286;7.518;2022-09-17T04:05:18;10.40;66.20
10057;DHT22;5068;51.286;7.518;2022-09-17T04:06:53;10.40;66.20
10057;DHT22;5068;51.286;7.518;2022-09-17T04:08:29;10.40;66.20
10057;DHT22;5068;51.286;7.518;2022-09-17T04:10:01;10.40;66.20
10057;DHT22;5068;51.286;7.518;2022-09-17T04:11:36;10.40;66.20
10057;DHT22;5068;51.286;7.518;2022-09-17T04:13:10;10.40;66.20
10057;DHT22;5068;51.286;7.518;2022-09-17T04:14:44;10.40;66.20
10057;DHT22;5068;51.286;7.518;2022-09-17T04:16:17;10.40;66.10
10057;DHT22;5068;51.286;7.518;2022-09-17T04:17:55;10.40;66.20
10057;DHT22;5068;51.286;7.518;2022-09-17T04:19:29;10.40;66.30
10057;DHT22;5068;51.286;7.518;2022-09-17T04:21:06;10.40;66.20
10057;DHT22;5068;51.286;7.518;2022-09-17T04:22:41;10.40;66.20
10057;DHT22;5068;51.286;7.518;2022-09-17T04:24:14;10.40;66.10
10057;DHT22;5068;51.286;7.518;2022-09-17T04:25:48;10.40;66.20
10057;DHT22;5068;51.286;7.518;2022-09-17T04:27:22;10.40;66.20
10057;DHT22;5068;51.286;7.518;2022-09-17T04:28:55;10.40;66.10
10057;DHT22;5068;51.286;7.518;2022-09-17T04:30:29;10.40;66.10
10057;DHT22;5068;51.286;7.518;2022-09-17T04:32:03;10.40;66.50
10057;DHT22;5068;51.286;7.518;2022-09-17T04:33:36;10.40;66.00
10057;DHT22;5068;51.286;7.518;2022-09-17T04:35:10;10.30;65.80
10057;DHT22;5068;51.286;7.518;2022-09-17T04:36:43;10.40;65.80
10057;DHT22;5068;51.286;7.518;2022-09-17T04:38:18;10.40;65.70
10057;DHT22;5068;51.286;7.518;2022-09-17T04:39:52;10.30;65.60
10057;DHT22;5068;51.286;7.518;2022-09-17T04:41:26;10.40;65.60
10057;DHT22;5068;51.286;7.518;2022-09-17T04:42:59;10.30;65.50
10057;DHT22;5068;51.286;7.518;2022-09-17T04:44:33;10.30;65.40
10057;DHT22;5068;51.286;7.518;2022-09-17T04:46:07;10.30;65.40
10057;DHT22;5068;51.286;7.518;2022-09-17T04:47:40;10.30;65.40
10057;DHT22;5068;51.286;7.518;2022-09-17T04:49:13;10.30;65.50
10057;DHT22;5068;51.286;7.518;2022-09-17T04:50:46;10.30;65.50
10057;DHT22;5068;51.286;7.518;2022-09-17T04:52:20;10.30;65.50
10057;DHT22;5068;51.286;7.518;2022-09-17T04:53:54;10.30;65.50
10057;DHT22;5068;51.286;7.518;2022-09-17T04:55:28;10.20;65.50
10057;DHT22;5068;51.286;7.518;2022-09-17T04:57:02;10.30;65.70
10057;DHT22;5068;51.286;7.518;2022-09-17T04:58:35;10.20;65.70
10057;DHT22;5068;51.286;7.518;2022-09-17T05:00:10;10.20;65.60
10057;DHT22;5068;51.286;7.518;2022-09-17T05:01:43;10.20;65.70
10057;DHT22;5068;51.286;7.518;2022-09-17T05:03:16;10.20;65.50
10057;DHT22;5068;51.286;7.518;2022-09-17T05:04:50;10.20;65.50
10057;DHT22;5068;51.286;7.518;2022-09-17T05:06:23;10.20;65.50
10057;DHT22;5068;51.286;7.518;2022-09-17T05:07:56;10.20;65.60
10057;DHT22;5068;51.286;7.518;2022-09-17T05:09:30;10.20;65.60
10057;DHT22;5068;51.286;7.518;2022-09-17T05:11:04;10.20;65.60
10057;DHT22;5068;51.286;7.518;2022-09-17T05:12:37;10.20;65.60
10057;DHT22;5068;51.286;7.518;2022-09-17T05:14:11;10.20;65.70
10057;DHT22;5068;51.286;7.518;2022-09-17T05:15:45;10.20;65.70
10057;DHT22;5068;51.286;7.518;2022-09-17T05:17:18;10.20;65.80
10057;DHT22;5068;51.286;7.518;2022-09-17T05:18:51;10.10;66.20
10057;DHT22;5068;51.286;7.518;2022-09-17T05:20:24;10.30;66.00
10057;DHT22;5068;51.286;7.518;2022-09-17T05:21:58;10.10;65.90
10057;DHT22;5068;51.286;7.518;2022-09-17T05:23:31;10.10;65.90
10057;DHT22;5068;51.286;7.518;2022-09-17T05:25:07;10.10;65.80
10057;DHT22;5068;51.286;7.518;2022-09-17T05:26:39;10.10;66.00
10057;DHT22;5068;51.286;7.518;2022-09-17T05:28:13;10.20;66.00
10057;DHT22;5068;51.286;7.518;2022-09-17T05:29:46;10.20;66.10
10057;DHT22;5068;51.286;7.518;2022-09-17T05:31:19;10.10;66.10
10057;DHT22;5068;51.286;7.518;2022-09-17T05:33:04;10.10;66.10
10057;DHT22;5068;51.286;7.518;2022-09-17T05:34:38;10.10;66.40
10057;DHT22;5068;51.286;7.518;2022-09-17T05:36:11;10.10;67.10
10057;DHT22;5068;51.286;7.518;2022-09-17T05:37:44;10.10;66.20
10057;DHT22;5068;51.286;7.518;2022-09-17T05:39:18;10.10;66.30
10057;DHT22;5068;51.286;7.518;2022-09-17T05:40:54;10.10;66.30
10057;DHT22;5068;51.286;7.518;2022-09-17T05:42:28;10.10;66.30
10057;DHT22;5068;51.286;7.518;2022-09-17T05:44:00;10.10;66.30
10057;DHT22;5068;51.286;7.518;2022-09-17T05:45:35;10.10;66.40
10057;DHT22;5068;51.286;7.518;2022-09-17T05:47:09;10.10;66.40
10057;DHT22;5068;51.286;7.518;2022-09-17T05:48:45;10.10;66.50
10057;DHT22;5068;51.286;7.518;2022-09-17T05:50:18;10.00;66.50
10057;DHT22;5068;51.286;7.518;2022-09-17T05:51:52;10.20;66.90
10057;DHT22;5068;51.286;7.518;2022-09-17T05:53:25;10.10;66.90
10057;DHT22;5068;51.286;7.518;2022-09-17T05:54:59;10.10;66.90
10057;DHT22;5068;51.286;7.518;2022-09-17T05:56:33;10.20;66.90
10057;DHT22;5068;51.286;7.518;2022-09-17T05:58:11;10.30;67.30
10057;DHT22;5068;51.286;7.518;2022-09-17T05:59:46;10.10;67.10
10057;DHT22;5068;51.286;7.518;2022-09-17T06:01:20;10.20;67.10
10057;DHT22;5068;51.286;7.518;2022-09-17T06:02:54;10.10;67.10
10057;DHT22;5068;51.286;7.518;2022-09-17T06:04:29;10.10;67.10
10057;DHT22;5068;51.286;7.518;2022-09-17T06:06:06;10.20;67.10
10057;DHT22;5068;51.286;7.518;2022-09-17T06:07:39;10.20;67.00
10057;DHT22;5068;51.286;7.518;2022-09-17T06:09:13;10.20;66.90
10057;DHT22;5068;51.286;7.518;2022-09-17T06:10:46;10.20;67.00
10057;DHT22;5068;51.286;7.518;2022-09-17T06:12:21;10.20;67.10
10057;DHT22;5068;51.286;7.518;2022-09-17T06:13:55;10.20;67.00
10057;DHT22;5068;51.286;7.518;2022-09-17T06:15:29;10.20;66.90
10057;DHT22;5068;51.286;7.518;2022-09-17T06:17:03;10.20;67.00
10057;DHT22;5068;51.286;7.518;2022-09-17T06:18:36;10.20;66.90
10057;DHT22;5068;51.286;7.518;2022-09-17T06:20:10;10.30;66.90
10057;DHT22;5068;51.286;7.518;2022-09-17T06:21:46;10.30;67.00
10057;DHT22;5068;51.286;7.518;2022-09-17T06:23:21;10.30;67.00
10057;DHT22;5068;51.286;7.518;2022-09-17T06:24:56;10.30;67.70
10057;DHT22;5068;51.286;7.518;2022-09-17T06:26:30;10.30;67.00
10057;DHT22;5068;51.286;7.518;2022-09-17T06:28:05;10.30;67.10
10057;DHT22;5068;51.286;7.518;2022-09-17T06:29:38;10.30;67.00
10057;DHT22;5068;51.286;7.518;2022-09-17T06:31:12;10.30;67.90
10057;DHT22;5068;51.286;7.518;2022-09-17T06:32:48;10.40;67.20
10057;DHT22;5068;51.286;7.518;2022-09-17T06:34:21;10.40;67.00
10057;DHT22;5068;51.286;7.518;2022-09-17T06:35:55;10.40;67.00
10057;DHT22;5068;51.286;7.518;2022-09-17T06:37:31;10.40;67.10
10057;DHT22;5068;51.286;7.518;2022-09-17T06:39:07;10.50;67.30
10057;DHT22;5068;51.286;7.518;2022-09-17T06:40:40;10.40;67.30
10057;DHT22;5068;51.286;7.518;2022-09-17T06:42:13;10.50;67.50
10057;DHT22;5068;51.286;7.518;2022-09-17T06:43:51;10.50;67.60
10057;DHT22;5068;51.286;7.518;2022-09-17T06:45:25;10.50;67.60
10057;DHT22;5068;51.286;7.518;2022-09-17T06:47:02;10.50;67.60
10057;DHT22;5068;51.286;7.518;2022-09-17T06:48:36;10.50;67.40
10057;DHT22;5068;51.286;7.518;2022-09-17T06:50:10;10.60;67.10
10057;DHT22;5068;51.286;7.518;2022-09-17T06:51:44;10.60;66.80
10057;DHT22;5068;51.286;7.518;2022-09-17T06:53:17;10.60;66.70
10057;DHT22;5068;51.286;7.518;2022-09-17T06:54:51;10.60;66.70
10057;DHT22;5068;51.286;7.518;2022-09-17T06:56:24;10.70;66.90
10057;DHT22;5068;51.286;7.518;2022-09-17T06:57:58;10.70;67.00
10057;DHT22;5068;51.286;7.518;2022-09-17T06:59:33;10.70;67.00
10057;DHT22;5068;51.286;7.518;2022-09-17T07:01:08;10.70;67.00
10057;DHT22;5068;51.286;7.518;2022-09-17T07:02:43;10.70;66.80
10057;DHT22;5068;51.286;7.518;2022-09-17T07:04:27;10.80;66.70
10057;DHT22;5068;51.286;7.518;2022-09-17T07:06:01;10.80;66.60
10057;DHT22;5068;51.286;7.518;2022-09-17T07:07:34;10.90;66.70
10057;DHT22;5068;51.286;7.518;2022-09-17T07:09:07;10.80;66.40
10057;DHT22;5068;51.286;7.518;2022-09-17T07:10:42;10.90;66.60
10057;DHT22;5068;51.286;7.518;2022-09-17T07:12:15;10.80;66.50
10057;DHT22;5068;51.286;7.518;2022-09-17T07:13:49;10.80;66.10
10057;DHT22;5068;51.286;7.518;2022-09-17T07:15:24;10.90;65.80
10057;DHT22;5068;51.286;7.518;2022-09-17T07:16:57;10.80;65.20
10057;DHT22;5068;51.286;7.518;2022-09-17T07:18:31;10.90;65.00
10057;DHT22;5068;51.286;7.518;2022-09-17T07:20:05;10.90;65.10
10057;DHT22;5068;51.286;7.518;2022-09-17T07:21:39;10.90;65.40
10057;DHT22;5068;51.286;7.518;2022-09-17T07:23:12;10.90;65.40
10057;DHT22;5068;51.286;7.518;2022-09-17T07:24:46;10.90;65.20
10057;DHT22;5068;51.286;7.518;2022-09-17T07:26:19;10.90;65.00
10057;DHT22;5068;51.286;7.518;2022-09-17T07:27:53;10.90;64.80
10057;DHT22;5068;51.286;7.518;2022-09-17T07:29:27;10.90;64.80
10057;DHT22;5068;51.286;7.518;2022-09-17T07:31:04;10.90;64.80
10057;DHT22;5068;51.286;7.518;2022-09-17T07:32:40;10.90;64.90
10057;DHT22;5068;51.286;7.518;2022-09-17T07:34:13;11.00;65.00
10057;DHT22;5068;51.286;7.518;2022-09-17T07:35:51;11.00;65.00
10057;DHT22;5068;51.286;7.518;2022-09-17T07:37:25;10.90;64.70
10057;DHT22;5068;51.286;7.518;2022-09-17T07:38:58;11.00;64.80
10057;DHT22;5068;51.286;7.518;2022-09-17T07:40:32;11.00;64.80
10057;DHT22;5068;51.286;7.518;2022-09-17T07:42:05;11.00;64.70
10057;DHT22;5068;51.286;7.518;2022-09-17T07:43:39;11.00;64.60
10057;DHT22;5068;51.286;7.518;2022-09-17T07:45:13;11.00;65.50
10057;DHT22;5068;51.286;7.518;2022-09-17T07:46:48;11.00;64.50
10057;DHT22;5068;51.286;7.518;2022-09-17T07:48:22;11.00;64.40
10057;DHT22;5068;51.286;7.518;2022-09-17T07:49:55;11.10;64.30
10057;DHT22;5068;51.286;7.518;2022-09-17T07:51:28;11.10;64.10
10057;DHT22;5068;51.286;7.518;2022-09-17T07:53:02;11.10;64.00
10057;DHT22;5068;51.286;7.518;2022-09-17T07:54:35;11.10;64.20
10057;DHT22;5068;51.286;7.518;2022-09-17T07:56:08;11.10;64.00
10057;DHT22;5068;51.286;7.518;2022-09-17T07:57:49;11.10;64.20
10057;DHT22;5068;51.286;7.518;2022-09-17T07:59:23;11.20;64.50
10057;DHT22;5068;51.286;7.518;2022-09-17T08:01:03;11.20;64.40
10057;DHT22;5068;51.286;7.518;2022-09-17T08:02:39;11.30;64.50
10057;DHT22;5068;51.286;7.518;2022-09-17T08:04:20;11.30;64.30
10057;DHT22;5068;51.286;7.518;2022-09-17T08:06:00;11.40;64.50
10057;DHT22;5068;51.286;7.518;2022-09-17T08:07:35;11.40;64.20
10057;DHT22;5068;51.286;7.518;2022-09-17T08:09:09;11.50;64.30
10057;DHT22;5068;51.286;7.518;2022-09-17T08:10:46;11.50;64.30
10057;DHT22;5068;51.286;7.518;2022-09-17T08:12:19;11.50;63.60
10057;DHT22;5068;51.286;7.518;2022-09-17T08:13:53;11.50;62.60
10057;DHT22;5068;51.286;7.518;2022-09-17T08:15:27;11.60;62.70
10057;DHT22;5068;51.286;7.518;2022-09-17T08:17:01;11.60;62.50
10057;DHT22;5068;51.286;7.518;2022-09-17T08:18:48;11.60;62.10
10057;DHT22;5068;51.286;7.518;2022-09-17T08:20:31;11.60;61.90
10057;DHT22;5068;51.286;7.518;2022-09-17T08:22:10;11.70;62.60
10057;DHT22;5068;51.286;7.518;2022-09-17T08:23:45;11.70;63.00
10057;DHT22;5068;51.286;7.518;2022-09-17T08:25:20;11.70;62.90
10057;DHT22;5068;51.286;7.518;2022-09-17T08:26:55;11.80;62.70
10057;DHT22;5068;51.286;7.518;2022-09-17T08:28:31;11.80;62.30
10057;DHT22;5068;51.286;7.518;2022-09-17T08:30:06;11.80;62.60
10057;DHT22;5068;51.286;7.518;2022-09-17T08:31:44;11.90;63.20
10057;DHT22;5068;51.286;7.518;2022-09-17T08:33:19;11.90;63.50
10057;DHT22;5068;51.286;7.518;2022-09-17T08:34:55;11.90;62.50
10057;DHT22;5068;51.286;7.518;2022-09-17T08:36:31;12.00;61.90
10057;DHT22;5068;51.286;7.518;2022-09-17T08:38:05;12.00;61.60
10057;DHT22;5068;51.286;7.518;2022-09-17T08:39:39;12.10;61.10
10057;DHT22;5068;51.286;7.518;2022-09-17T08:41:22;12.10;60.90
10057;DHT22;5068;51.286;7.518;2022-09-17T08:43:00;12.10;60.70
10057;DHT22;5068;51.286;7.518;2022-09-17T08:44:39;12.20;60.40
10057;DHT22;5068;51.286;7.518;2022-09-17T08:46:17;12.20;60.20
10057;DHT22;5068;51.286;7.518;2022-09-17T08:47:53;12.20;60.40
10057;DHT22;5068;51.286;7.518;2022-09-17T08:49:34;12.20;60.20
10057;DHT22;5068;51.286;7.518;2022-09-17T08:51:22;12.20;60.10
10057;DHT22;5068;51.286;7.518;2022-09-17T08:53:23;12.20;60.20
10057;DHT22;5068;51.286;7.518;2022-09-17T08:55:17;12.30;60.40
10057;DHT22;5068;51.286;7.518;2022-09-17T08:57:09;12.30;60.60
10057;DHT22;5068;51.286;7.518;2022-09-17T08:59:10;12.30;60.10
10057;DHT22;5068;51.286;7.518;2022-09-17T09:01:01;12.40;60.50
10057;DHT22;5068;51.286;7.518;2022-09-17T09:02:53;12.40;60.30
10057;DHT22;5068;51.286;7.518;2022-09-17T09:04:55;12.50;59.60
10057;DHT22;5068;51.286;7.518;2022-09-17T09:06:38;12.50;59.20
10057;DHT22;5068;51.286;7.518;2022-09-17T09:08:21;12.60;59.30
10057;DHT22;5068;51.286;7.518;2022-09-17T09:10:09;12.60;59.40
10057;DHT22;5068;51.286;7.518;2022-09-17T09:11:47;12.70;59.20
10057;DHT22;5068;51.286;7.518;2022-09-17T09:13:32;12.70;59.50
10057;DHT22;5068;51.286;7.518;2022-09-17T09:15:22;12.80;59.10
10057;DHT22;5068;51.286;7.518;2022-09-17T09:17:06;12.90;59.00
10057;DHT22;5068;51.286;7.518;2022-09-17T09:18:42;12.90;58.60
10057;DHT22;5068;51.286;7.518;2022-09-17T09:20:18;13.00;59.00
10057;DHT22;5068;51.286;7.518;2022-09-17T09:22:04;13.10;58.20
10057;DHT22;5068;51.286;7.518;2022-09-17T09:23:52;13.20;57.70
10057;DHT22;5068;51.286;7.518;2022-09-17T09:25:31;13.20;57.50
10057;DHT22;5068;51.286;7.518;2022-09-17T09:27:26;13.30;56.40
10057;DHT22;5068;51.286;7.518;2022-09-17T09:29:09;13.40;57.00
10057;DHT22;5068;51.286;7.518;2022-09-17T09:31:01;13.40;57.10
10057;DHT22;5068;51.286;7.518;2022-09-17T09:32:54;13.40;56.20
10057;DHT22;5068;51.286;7.518;2022-09-17T09:34:32;13.50;55.80
10057;DHT22;5068;51.286;7.518;2022-09-17T09:36:11;13.50;55.50
10057;DHT22;5068;51.286;7.518;2022-09-17T09:37:54;13.50;55.90
10057;DHT22;5068;51.286;7.518;2022-09-17T09:39:32;13.60;55.40
10057;DHT22;5068;51.286;7.518;2022-09-17T09:41:19;13.70;55.50
10057;DHT22;5068;51.286;7.518;2022-09-17T09:43:00;13.70;55.20
10057;DHT22;5068;51.286;7.518;2022-09-17T09:44:41;13.70;54.90
10057;DHT22;5068;51.286;7.518;2022-09-17T09:46:32;13.70;55.20
10057;DHT22;5068;51.286;7.518;2022-09-17T09:48:28;13.80;54.80
10057;DHT22;5068;51.286;7.518;2022-09-17T09:50:37;13.70;54.70
10057;DHT22;5068;51.286;7.518;2022-09-17T09:52:47;13.80;52.80
10057;DHT22;5068;51.286;7.518;2022-09-17T09:54:42;13.80;53.80
10057;DHT22;5068;51.286;7.518;2022-09-17T09:56:37;13.80;53.70
10057;DHT22;5068;51.286;7.518;2022-09-17T09:58:27;13.80;54.10
10057;DHT22;5068;51.286;7.518;2022-09-17T10:00:22;13.80;55.20
10057;DHT22;5068;51.286;7.518;2022-09-17T10:01:57;13.80;54.40
10057;DHT22;5068;51.286;7.518;2022-09-17T10:03:36;13.90;54.80
10057;DHT22;5068;51.286;7.518;2022-09-17T10:05:13;13.90;54.50
10057;DHT22;5068;51.286;7.518;2022-09-17T10:06:48;14.00;54.40
10057;DHT22;5068;51.286;7.518;2022-09-17T10:08:26;14.00;53.70
10057;DHT22;5068;51.286;7.518;2022-09-17T10:10:08;14.10;53.30
10057;DHT22;5068;51.286;7.518;2022-09-17T10:11:42;14.20;52.20
10057;DHT22;5068;51.286;7.518;2022-09-17T10:13:32;14.20;51.60
10057;DHT22;5068;51.286;7.518;2022-09-17T10:15:23;14.30;51.80
10057;DHT22;5068;51.286;7.518;2022-09-17T10:17:19;14.40;51.10
10057;DHT22;5068;51.286;7.518;2022-09-17T10:19:11;14.50;51.00
10057;DHT22;5068;51.286;7.518;2022-09-17T10:20:59;14.50;51.00
10057;DHT22;5068;51.286;7.518;2022-09-17T10:22:34;14.60;51.30
10057;DHT22;5068;51.286;7.518;2022-09-17T10:24:26;14.60;51.90
10057;DHT22;5068;51.286;7.518;2022-09-17T10:26:02;14.70;51.40
10057;DHT22;5068;51.286;7.518;2022-09-17T10:27:36;14.70;51.20
10057;DHT22;5068;51.286;7.518;2022-09-17T10:29:13;14.70;50.60
10057;DHT22;5068;51.286;7.518;2022-09-17T10:30:55;14.70;50.20
10057;DHT22;5068;51.286;7.518;2022-09-17T10:32:30;14.70;50.10
10057;DHT22;5068;51.286;7.518;2022-09-17T10:34:03;14.70;50.20